Time;durP1;ratioP1;P1;durP2;ratioP2;P2;SDS_P1;SDS_P2;PMS_P1;PMS_P2;Temp;Humidity;BMP_temperature;BMP_pressure;BME280_temperature;BME280_humidity;BME280_pressure;Samples;Min_cycle;Max_cycle;Signal;HPM_P1;HPM_P2
2022/01/28 00:02:52;;;;;;;5.88;4.18;;;16.70;49.00;;;;;;5070948;28;20037;-35
2022/01/28 00:05:17;;;;;;;5.90;4.00;;;16.70;48.90;;;;;;5069729;28;20048;-35
2022/01/28 00:07:43;;;;;;;5.72;3.83;;;16.70;48.90;;;;;;5070798;28;20032;-35
2022/01/28 00:10:09;;;;;;;6.47;4.05;;;16.70;48.80;;;;;;5070945;28;20031;-36
2022/01/28 00:12:42;;;;;;;8.00;3.90;;;16.70;48.80;;;;;;5070976;28;20040;-35
2022/01/28 00:15:19;;;;;;;6.63;3.90;;;16.70;48.70;;;;;;5056445;28;20050;-35
2022/01/28 00:20:59;;;;;;;6.53;4.30;;;16.60;48.70;;;;;;5071045;28;20096;-35
2022/01/28 00:39:27;;;;;;;6.32;3.78;;;16.60;48.50;;;;;;5117241;28;20043;-35
2022/01/28 00:41:53;;;;;;;6.40;3.83;;;16.50;48.50;;;;;;5117420;28;20057;-34
2022/01/28 00:44:20;;;;;;;6.38;3.75;;;16.60;48.50;;;;;;5117126;28;20016;-34
2022/01/28 00:46:46;;;;;;;7.68;3.90;;;16.60;48.50;;;;;;5099254;28;20030;-35
2022/01/28 00:49:12;;;;;;;9.07;4.07;;;16.60;48.40;;;;;;5117439;28;20198;-35
2022/01/28 00:51:39;;;;;;;6.13;3.42;;;16.60;48.40;;;;;;5117423;28;20473;-35
2022/01/28 00:54:05;;;;;;;6.28;3.72;;;16.50;48.40;;;;;;5117974;28;20018;-35
2022/01/28 00:56:31;;;;;;;6.53;3.92;;;16.50;48.30;;;;;;5117456;28;20426;-37
2022/01/28 00:58:57;;;;;;;5.95;3.88;;;16.50;48.30;;;;;;5116820;28;20530;-36
2022/01/28 01:01:24;;;;;;;7.32;3.85;;;16.50;48.30;;;;;;5116622;28;20016;-37
2022/01/28 01:03:50;;;;;;;6.40;4.00;;;16.50;48.20;;;;;;5117062;28;20011;-36
2022/01/28 01:06:17;;;;;;;6.68;3.65;;;16.50;48.30;;;;;;5116831;28;20463;-37
2022/01/28 01:08:43;;;;;;;6.75;3.72;;;16.50;48.20;;;;;;5098902;28;20024;-37
2022/01/28 01:11:10;;;;;;;5.93;3.70;;;16.50;48.30;;;;;;5117586;28;20011;-37
2022/01/28 01:13:40;;;;;;;7.55;3.90;;;16.50;48.20;;;;;;5117440;28;20087;-37
2022/01/28 01:16:08;;;;;;;7.30;3.70;;;16.50;48.20;;;;;;5118212;28;20036;-36
2022/01/28 01:21:07;;;;;;;7.25;3.83;;;16.40;48.20;;;;;;5118214;28;20020;-34
2022/01/28 01:23:37;;;;;;;6.88;3.70;;;16.40;48.10;;;;;;5117097;28;20011;-35
2022/01/28 01:28:37;;;;;;;5.57;3.75;;;16.40;48.10;;;;;;5116339;28;20031;-34
2022/01/28 01:31:05;;;;;;;6.65;3.88;;;16.40;48.10;;;;;;5098710;28;20016;-34
2022/01/28 01:33:35;;;;;;;6.32;3.60;;;16.40;47.90;;;;;;5116473;28;20039;-35
2022/01/28 01:36:01;;;;;;;5.57;3.40;;;16.40;48.00;;;;;;5116277;28;20039;-34
2022/01/28 01:38:31;;;;;;;4.93;3.25;;;16.40;47.90;;;;;;5115950;28;20038;-35
2022/01/28 01:41:00;;;;;;;6.18;3.88;;;16.40;47.90;;;;;;5116204;28;20015;-34
2022/01/28 01:46:07;;;;;;;6.28;3.53;;;16.40;48.00;;;;;;5115436;28;20019;-34
2022/01/28 01:54:03;;;;;;;7.05;4.00;;;16.30;47.80;;;;;;5116241;28;20030;-35
2022/01/28 01:56:29;;;;;;;6.97;3.70;;;16.40;47.90;;;;;;5115653;28;20024;-35
2022/01/28 01:58:59;;;;;;;5.78;3.70;;;16.30;47.80;;;;;;5115973;28;20031;-35
2022/01/28 02:01:27;;;;;;;10.32;4.32;;;16.30;47.80;;;;;;5115665;28;20027;-34
2022/01/28 02:03:54;;;;;;;5.90;3.93;;;16.30;47.70;;;;;;5098582;28;20031;-35
2022/01/28 02:06:21;;;;;;;7.10;3.25;;;16.30;47.70;;;;;;5115630;28;20011;-35
2022/01/28 02:08:47;;;;;;;6.25;3.85;;;16.40;47.70;;;;;;5116377;28;20027;-34
2022/01/28 02:11:13;;;;;;;4.55;3.20;;;16.30;47.60;;;;;;5116591;28;20020;-34
2022/01/28 02:13:41;;;;;;;4.93;3.42;;;16.30;47.70;;;;;;5117188;28;20047;-34
2022/01/28 02:16:09;;;;;;;6.57;3.40;;;16.30;47.60;;;;;;5117546;28;20016;-35
2022/01/28 02:18:35;;;;;;;6.72;3.90;;;16.30;47.60;;;;;;5117158;28;20024;-37
2022/01/28 02:21:10;;;;;;;6.38;3.60;;;16.30;47.60;;;;;;5117589;28;20012;-37
2022/01/28 02:23:36;;;;;;;6.35;3.72;;;16.30;47.60;;;;;;5117998;28;20016;-37
2022/01/28 02:26:03;;;;;;;6.53;3.53;;;16.30;47.50;;;;;;5118788;28;20061;-37
2022/01/28 02:28:33;;;;;;;7.68;3.35;;;16.30;47.60;;;;;;5118315;28;20016;-37
2022/01/28 02:31:00;;;;;;;7.55;3.40;;;16.20;47.50;;;;;;5117518;28;20487;-37
2022/01/28 02:33:27;;;;;;;6.25;3.42;;;16.20;47.40;;;;;;5099068;28;20079;-37
2022/01/28 02:35:53;;;;;;;7.00;3.33;;;16.20;47.40;;;;;;5115969;28;20051;-38
2022/01/28 02:38:21;;;;;;;5.63;3.38;;;16.30;47.40;;;;;;5115148;28;20028;-36
2022/01/28 02:40:52;;;;;;;6.57;3.67;;;16.30;47.40;;;;;;5096945;28;20494;-35
2022/01/28 02:45:46;;;;;;;5.88;3.40;;;16.30;47.20;;;;;;5115439;28;20020;-35
2022/01/28 02:48:18;;;;;;;5.82;3.53;;;16.30;47.20;;;;;;5115213;28;20047;-36
2022/01/28 02:51:19;;;;;;;7.30;3.65;;;16.20;47.20;;;;;;5115250;28;20012;-36
2022/01/28 02:53:40;;;;;;;6.57;3.17;;;16.20;47.20;;;;;;5110335;28;20508;-36
2022/01/28 02:56:16;;;;;;;6.32;3.20;;;16.20;47.20;;;;;;5096939;28;20096;-35
2022/01/28 02:58:42;;;;;;;6.20;3.42;;;16.20;47.80;;;;;;5114444;28;20031;-37
2022/01/28 03:01:08;;;;;;;7.00;3.10;;;16.20;47.20;;;;;;5115247;28;20012;-38
2022/01/28 03:03:34;;;;;;;6.10;3.40;;;16.20;47.20;;;;;;5096259;28;20489;-37
2022/01/28 03:06:01;;;;;;;6.05;3.60;;;16.20;47.20;;;;;;5114272;28;20012;-37
2022/01/28 03:08:29;;;;;;;6.72;3.50;;;16.20;47.20;;;;;;5114451;28;20028;-38
2022/01/28 03:16:06;;;;;;;5.78;3.05;;;16.20;47.10;;;;;;5114899;28;20051;-38
2022/01/28 03:18:42;;;;;;;5.68;3.13;;;16.10;47.10;;;;;;5115221;28;20036;-39
2022/01/28 03:21:20;;;;;;;5.55;3.00;;;16.20;47.20;;;;;;5115792;28;20046;-39
2022/01/28 03:23:46;;;;;;;6.97;3.50;;;16.20;47.00;;;;;;5115457;28;20024;-39
2022/01/28 03:26:14;;;;;;;5.22;2.95;;;16.10;47.00;;;;;;5115438;28;20088;-40
2022/01/28 03:28:40;;;;;;;7.35;3.70;;;16.10;47.00;;;;;;5114971;28;20028;-39
2022/01/28 03:31:06;;;;;;;5.53;2.95;;;16.10;47.00;;;;;;5115227;28;20048;-39
2022/01/28 03:33:34;;;;;;;6.50;3.10;;;16.10;46.90;;;;;;5115122;28;20012;-39
2022/01/28 03:36:03;;;;;;;6.40;3.25;;;16.10;46.90;;;;;;5114551;28;20108;-39
2022/01/28 03:38:29;;;;;;;7.00;3.50;;;16.20;46.90;;;;;;5114324;28;20026;-39
2022/01/28 03:40:56;;;;;;;5.90;3.20;;;16.10;47.00;;;;;;5113737;28;20469;-39
2022/01/28 03:43:22;;;;;;;6.60;3.20;;;16.10;47.00;;;;;;5114054;28;20016;-40
2022/01/28 03:45:49;;;;;;;6.07;3.35;;;16.10;46.90;;;;;;5113801;28;20016;-40
2022/01/28 03:48:15;;;;;;;5.93;3.10;;;16.10;46.90;;;;;;5114503;28;20080;-42
2022/01/28 03:50:42;;;;;;;6.70;3.20;;;16.10;46.90;;;;;;5113835;28;20501;-40
2022/01/28 03:53:08;;;;;;;6.32;3.17;;;16.10;46.90;;;;;;5114257;28;20040;-40
2022/01/28 03:55:34;;;;;;;6.35;3.30;;;16.10;46.80;;;;;;5078655;28;20532;-42
2022/01/28 03:58:00;;;;;;;8.43;3.40;;;16.10;46.90;;;;;;5095861;28;20054;-43
2022/01/28 04:00:29;;;;;;;4.95;2.80;;;16.10;46.90;;;;;;5114135;28;20065;-42
2022/01/28 04:03:05;;;;;;;6.88;3.08;;;16.10;46.90;;;;;;5113635;28;20019;-41
2022/01/28 04:13:31;;;;;;;6.75;3.15;;;16.00;46.80;;;;;;5117693;28;20072;-42
2022/01/28 04:18:23;;;;;;;6.15;2.90;;;16.10;46.80;;;;;;5099447;28;20039;-36
2022/01/28 04:20:48;;;;;;;4.90;2.88;;;16.10;46.70;;;;;;5118767;28;20035;-36
2022/01/28 04:23:14;;;;;;;5.50;2.78;;;16.20;46.50;;;;;;5099558;28;20115;-36
2022/01/28 04:25:40;;;;;;;6.03;2.60;;;16.20;46.20;;;;;;5117389;28;20015;-36
2022/01/28 04:28:06;;;;;;;6.38;3.08;;;16.30;46.10;;;;;;5116266;27;20072;-36
2022/01/28 04:30:32;;;;;;;6.47;3.13;;;16.40;45.90;;;;;;5117085;28;20023;-35
2022/01/28 04:32:58;;;;;;;5.55;2.90;;;16.50;45.50;;;;;;5117238;28;20027;-35
2022/01/28 04:35:24;;;;;;;8.05;3.03;;;16.60;45.20;;;;;;5117582;28;20044;-35
2022/01/28 04:38:26;;;;;;;4.68;2.83;;;16.80;44.90;;;;;;5099173;28;20023;-35
2022/01/28 04:40:45;;;;;;;5.60;2.83;;;16.80;44.70;;;;;;5101578;28;20044;-35
2022/01/28 04:43:18;;;;;;;5.22;2.65;;;17.00;44.50;;;;;;5117413;28;20020;-35
2022/01/28 04:53:27;;;;;;;5.88;3.03;;;17.30;43.50;;;;;;5117326;28;20111;-35
2022/01/28 04:58:46;;;;;;;7.00;3.22;;;17.50;43.10;;;;;;5100553;28;20148;-38
2022/01/28 05:04:46;;;;;;;5.15;2.75;;;17.70;42.50;;;;;;5053867;28;20025;-38
2022/01/28 05:12:46;;;;;;;6.50;3.13;;;18.00;41.80;;;;;;5054355;28;20021;-38
2022/01/28 05:26:32;;;;;;;6.10;2.67;;;18.50;40.60;;;;;;5014262;28;20131;-39
2022/01/28 05:28:58;;;;;;;4.78;2.40;;;18.70;40.40;;;;;;5014298;28;20126;-39
2022/01/28 05:31:44;;;;;;;6.47;2.35;;;18.80;40.10;;;;;;5014081;28;20034;-39
2022/01/28 05:34:10;;;;;;;4.53;2.42;;;18.80;39.90;;;;;;5014324;28;20030;-39
2022/01/28 05:36:56;;;;;;;5.55;2.28;;;18.90;39.70;;;;;;5013965;28;20121;-35
2022/01/28 05:39:22;;;;;;;4.60;2.40;;;19.00;39.50;;;;;;5014408;28;20586;-35
2022/01/28 05:42:08;;;;;;;5.00;2.42;;;19.10;39.40;;;;;;5033246;28;20037;-36
2022/01/28 05:44:53;;;;;;;5.10;2.42;;;19.10;39.20;;;;;;5033481;28;20020;-37
2022/01/28 05:47:40;;;;;;;4.43;2.38;;;19.30;39.00;;;;;;5033351;28;20125;-36
2022/01/28 05:50:25;;;;;;;5.43;2.45;;;19.30;38.60;;;;;;5033542;28;20108;-36
2022/01/28 05:52:51;;;;;;;4.72;2.22;;;19.40;38.50;;;;;;5033487;28;20442;-37
2022/01/28 05:55:37;;;;;;;4.18;2.17;;;19.50;38.40;;;;;;5033909;28;20040;-36
2022/01/28 05:58:25;;;;;;;3.63;2.10;;;19.60;38.30;;;;;;5033570;28;20021;-35
2022/01/28 06:00:51;;;;;;;5.75;2.40;;;19.60;38.00;;;;;;5221225;22;20073;-91
2022/01/28 06:03:36;;;;;;;4.32;2.05;;;19.70;37.90;;;;;;5006218;28;20049;-91
2022/01/28 06:06:02;;;;;;;4.57;2.17;;;19.80;37.80;;;;;;4982413;28;20094;-88
2022/01/28 06:08:28;;;;;;;6.25;2.40;;;19.90;37.60;;;;;;4998825;28;20050;-90
2022/01/28 06:10:56;;;;;;;4.45;2.13;;;19.90;37.50;;;;;;4982784;28;20026;-91
2022/01/28 06:13:22;;;;;;;5.68;2.35;;;20.00;37.40;;;;;;5009909;28;20059;-92
2022/01/28 06:15:48;;;;;;;4.13;2.15;;;20.00;37.20;;;;;;5000275;28;20023;-92
2022/01/28 06:18:15;;;;;;;4.38;2.15;;;20.10;37.10;;;;;;5016473;28;20052;-91
2022/01/28 06:20:43;;;;;;;4.40;1.90;;;20.20;37.00;;;;;;5016644;28;20021;-90
2022/01/28 06:23:08;;;;;;;4.15;2.00;;;20.20;36.90;;;;;;5000836;28;20010;-91
2022/01/28 06:25:34;;;;;;;4.90;2.17;;;20.30;36.70;;;;;;4999968;28;20053;-89
2022/01/28 06:28:04;;;;;;;3.83;2.20;;;20.40;36.70;;;;;;5000379;28;20035;-91
2022/01/28 06:30:35;;;;;;;4.32;2.20;;;20.40;36.50;;;;;;5011678;28;20015;-91
2022/01/28 06:33:02;;;;;;;4.05;2.10;;;20.50;36.40;;;;;;4996012;28;20033;-91
2022/01/28 06:35:30;;;;;;;5.07;2.03;;;20.50;36.30;;;;;;4993736;28;20548;-92
2022/01/28 06:37:56;;;;;;;4.45;2.03;;;20.60;36.20;;;;;;4993984;28;20117;-91
2022/01/28 06:40:23;;;;;;;5.13;2.28;;;20.60;36.10;;;;;;4977282;28;20033;-91
2022/01/28 06:42:51;;;;;;;5.75;2.00;;;20.70;36.10;;;;;;4994238;28;20053;-91
2022/01/28 06:45:20;;;;;;;5.55;1.92;;;20.80;36.00;;;;;;4994247;28;20015;-90
2022/01/28 06:47:54;;;;;;;4.30;2.10;;;20.80;35.80;;;;;;4978817;28;20034;-92
2022/01/28 06:54:17;;;;;;;5.63;2.78;;;20.90;35.70;;;;;;5014148;28;20032;-92
2022/01/28 06:57:14;;;;;;;5.20;2.35;;;21.00;35.50;;;;;;5061597;28;20550;-92
2022/01/28 06:59:50;;;;;;;4.90;2.00;;;21.00;35.40;;;;;;5038627;28;20053;-93
2022/01/28 07:02:38;;;;;;;;;;;;;;;;;;;;;
2022/01/28 07:08:13;;;;;;;5.55;2.17;;;21.20;35.20;;;;;;5024646;28;20092;-93
2022/01/28 07:21:59;;;;;;;5.38;2.25;;;21.40;34.80;;;;;;4838147;29;20045;-91
2022/01/28 07:24:30;;;;;;;6.30;2.50;;;21.50;34.70;;;;;;4833662;29;20027;-88
2022/01/28 07:27:19;;;;;;;8.57;2.90;;;21.50;34.60;;;;;;4830581;29;20030;-93
2022/01/28 07:29:51;;;;;;;15.05;3.50;;;20.70;36.30;;;;;;4812167;29;20042;-92
2022/01/28 07:32:18;;;;;;;14.82;3.88;;;19.00;40.20;;;;;;4826227;29;20195;-91
2022/01/28 07:34:47;;;;;;;18.27;3.90;;;18.10;42.00;;;;;;4841104;29;20038;-89
2022/01/28 07:37:16;;;;;;;16.40;3.97;;;17.60;42.90;;;;;;4821772;29;20057;-91
2022/01/28 07:39:45;;;;;;;10.52;3.45;;;17.50;43.60;;;;;;4817954;29;20046;-92
2022/01/28 07:42:11;;;;;;;9.10;3.83;;;17.70;42.70;;;;;;4817970;29;20022;-92
2022/01/28 07:44:37;;;;;;;11.40;3.80;;;17.50;42.90;;;;;;4858016;29;20083;-92
2022/01/28 07:47:06;;;;;;;11.98;4.38;;;17.40;43.10;;;;;;4951919;29;20658;-91
2022/01/28 07:49:32;;;;;;;12.10;4.10;;;17.40;43.60;;;;;;4956890;29;20011;-91
2022/01/28 07:51:58;;;;;;;13.50;4.60;;;17.40;43.00;;;;;;4995075;28;20027;-90
2022/01/28 07:54:23;;;;;;;9.90;4.13;;;17.30;42.90;;;;;;5016617;28;20054;-90
2022/01/28 07:56:53;;;;;;;10.82;4.55;;;17.50;43.50;;;;;;4984242;28;20028;-90
2022/01/28 07:59:19;;;;;;;11.13;4.60;;;17.50;42.80;;;;;;4998630;28;20026;-90
2022/01/28 08:01:47;;;;;;;11.63;4.60;;;17.60;42.70;;;;;;4998144;28;20039;-89
2022/01/28 08:04:13;;;;;;;11.50;4.80;;;17.30;42.90;;;;;;5014576;28;20018;-92
2022/01/28 08:06:40;;;;;;;11.55;4.63;;;17.50;42.90;;;;;;4998394;28;20064;-91
2022/01/28 08:09:12;;;;;;;12.38;5.03;;;17.60;41.90;;;;;;4998083;28;20007;-91
2022/01/28 08:11:41;;;;;;;15.95;5.25;;;17.70;42.40;;;;;;4982950;28;20019;-91
2022/01/28 08:14:17;;;;;;;14.85;4.63;;;17.40;42.30;;;;;;5013608;28;20044;-90
2022/01/28 08:16:49;;;;;;;15.90;4.90;;;17.00;43.50;;;;;;5011749;28;20030;-90
2022/01/28 08:19:17;;;;;;;24.55;5.05;;;16.60;44.50;;;;;;4997539;28;20095;-88
2022/01/28 08:21:43;;;;;;;24.88;5.13;;;17.20;44.90;;;;;;5014021;28;20014;-88
2022/01/28 08:24:09;;;;;;;16.13;5.30;;;18.10;43.40;;;;;;5013475;28;20093;-89
2022/01/28 08:26:35;;;;;;;16.42;4.65;;;18.90;41.50;;;;;;5009679;28;20087;-88
2022/01/28 08:29:06;;;;;;;15.90;4.57;;;19.40;40.00;;;;;;5010691;28;20006;-90
2022/01/28 08:31:34;;;;;;;11.55;4.78;;;19.70;39.00;;;;;;5011651;28;20029;-88
2022/01/28 08:34:01;;;;;;;14.38;4.28;;;20.10;38.20;;;;;;5011697;28;20049;-88
2022/01/28 08:36:27;;;;;;;11.48;4.20;;;20.60;37.40;;;;;;5012128;28;20025;-90
2022/01/28 08:38:56;;;;;;;13.32;3.70;;;21.00;36.90;;;;;;5011330;28;20042;-89
2022/01/28 08:41:23;;;;;;;14.93;3.83;;;21.30;36.50;;;;;;4995788;28;20496;-90
2022/01/28 08:43:51;;;;;;;16.38;4.60;;;21.60;36.10;;;;;;4995559;28;20094;-87
2022/01/28 08:46:17;;;;;;;16.15;4.10;;;21.90;35.90;;;;;;5010178;28;20033;-89
2022/01/28 08:48:50;;;;;;;14.00;4.38;;;22.00;35.70;;;;;;5006170;28;20015;-88
2022/01/28 08:51:19;;;;;;;12.88;3.92;;;22.10;35.60;;;;;;5001730;28;20023;-89
2022/01/28 08:53:45;;;;;;;15.98;4.30;;;22.20;35.30;;;;;;5001667;28;20045;-88
2022/01/28 08:56:11;;;;;;;16.40;4.82;;;22.40;35.10;;;;;;5000465;28;20040;-89
2022/01/28 08:58:46;;;;;;;12.57;3.85;;;22.60;35.10;;;;;;4988046;28;20027;-88
2022/01/28 09:01:15;;;;;;;12.38;4.03;;;22.70;34.70;;;;;;4991367;28;20050;-88
2022/01/28 09:03:47;;;;;;;14.32;4.40;;;23.00;34.40;;;;;;5008741;28;20034;-88
2022/01/28 09:06:14;;;;;;;10.77;4.05;;;22.90;34.30;;;;;;4990677;28;20090;-94
2022/01/28 09:08:59;;;;;;;14.55;3.78;;;22.90;33.80;;;;;;4991348;28;20094;-90
2022/01/28 09:11:47;;;;;;;15.45;3.90;;;22.90;33.60;;;;;;5007492;28;20094;-89
2022/01/28 09:14:45;;;;;;;12.15;4.18;;;23.00;33.40;;;;;;5013448;28;20034;-89
2022/01/28 09:17:22;;;;;;;12.77;4.10;;;23.10;33.00;;;;;;4997079;28;20059;-89
2022/01/28 09:19:52;;;;;;;17.20;3.70;;;23.20;32.60;;;;;;4997032;28;20037;-88
2022/01/28 09:22:18;;;;;;;20.55;4.18;;;23.30;33.10;;;;;;5012599;28;20006;-87
2022/01/28 09:24:44;;;;;;;22.60;4.88;;;23.20;33.60;;;;;;4990951;28;20036;-89
2022/01/28 09:27:14;;;;;;;18.40;4.40;;;23.20;33.70;;;;;;4990113;28;20027;-91
2022/01/28 09:29:41;;;;;;;15.85;4.15;;;23.30;33.60;;;;;;5006405;28;20049;-91
2022/01/28 09:32:11;;;;;;;19.55;4.35;;;23.30;33.50;;;;;;5006872;28;20118;-90
2022/01/28 09:34:41;;;;;;;17.60;4.57;;;23.40;33.60;;;;;;5061977;23;20017;-81
2022/01/28 09:37:07;;;;;;;19.52;4.90;;;23.40;33.60;;;;;;5121492;28;20040;-81
2022/01/28 09:39:36;;;;;;;17.50;4.22;;;23.50;33.40;;;;;;5103216;28;20020;-82
2022/01/28 09:42:03;;;;;;;19.92;4.63;;;23.60;33.30;;;;;;5121799;28;20016;-82
2022/01/28 09:44:30;;;;;;;15.63;4.43;;;23.60;33.20;;;;;;5100235;28;20091;-83
2022/01/28 09:46:59;;;;;;;16.58;4.57;;;23.70;33.00;;;;;;5118255;28;20064;-81
2022/01/28 09:49:26;;;;;;;18.73;4.33;;;23.80;33.00;;;;;;5099602;28;20103;-82
2022/01/28 09:51:52;;;;;;;10.85;4.13;;;23.80;32.80;;;;;;5115904;28;20076;-82
2022/01/28 09:54:18;;;;;;;18.30;4.43;;;23.80;32.80;;;;;;5099268;28;20027;-81
2022/01/28 09:56:44;;;;;;;10.82;4.63;;;23.90;32.70;;;;;;5120243;28;20412;-81
2022/01/28 09:59:11;;;;;;;16.73;4.32;;;23.90;32.60;;;;;;5118204;28;20022;-84
2022/01/28 10:01:53;;;;;;;16.85;4.53;;;23.90;32.50;;;;;;5102874;28;20042;-82
2022/01/28 10:04:24;;;;;;;19.75;4.50;;;23.90;32.50;;;;;;5118894;28;20012;-79
2022/01/28 10:06:54;;;;;;;17.95;5.38;;;23.70;32.60;;;;;;5098890;28;20015;-82
2022/01/28 10:09:23;;;;;;;;;;;23.50;32.70;;;;;;5117460;28;20010;-81
2022/01/28 10:11:52;;;;;;;19.05;5.70;;;23.10;32.80;;;;;;5113276;28;19963;-79
2022/01/28 10:14:22;;;;;;;25.02;5.47;;;22.90;32.70;;;;;;5107163;28;20073;-80
2022/01/28 10:17:10;;;;;;;27.90;6.05;;;22.70;33.90;;;;;;5109731;28;20073;-83
2022/01/28 10:19:38;;;;;;;19.85;5.38;;;22.70;34.20;;;;;;5104886;28;20049;-84
2022/01/28 10:22:16;;;;;;;19.60;5.65;;;22.70;34.60;;;;;;5103148;28;20061;-84
2022/01/28 10:24:42;;;;;;;19.42;5.57;;;22.50;34.50;;;;;;5103500;28;20016;-79
2022/01/28 10:27:10;;;;;;;12.45;5.97;;;22.50;34.80;;;;;;5102529;28;20045;-79
2022/01/28 10:29:37;;;;;;;17.05;6.13;;;22.30;34.90;;;;;;5100649;28;20103;-85
2022/01/28 10:32:08;;;;;;;15.63;6.28;;;22.20;35.00;;;;;;5101936;28;20465;-80
2022/01/28 10:34:40;;;;;;;13.98;6.50;;;22.10;35.30;;;;;;5101355;28;20032;-82
2022/01/28 10:37:09;;;;;;;18.95;7.22;;;22.00;35.30;;;;;;5085220;28;20070;-81
2022/01/28 10:39:57;;;;;;;15.43;7.60;;;22.00;35.50;;;;;;5102126;28;20080;-80
2022/01/28 10:42:39;;;;;;;16.63;7.32;;;21.90;35.70;;;;;;5101202;28;20449;-80
2022/01/28 10:45:11;;;;;;;21.70;7.97;;;21.80;35.90;;;;;;5101432;28;20045;-78
2022/01/28 10:47:44;;;;;;;17.30;7.85;;;21.80;35.90;;;;;;5100608;28;20023;-79
2022/01/28 10:50:18;;;;;;;15.23;7.78;;;21.80;35.80;;;;;;5101102;28;20018;-82
2022/01/28 10:52:44;;;;;;;19.85;8.45;;;21.80;36.00;;;;;;5099784;28;20083;-80
2022/01/28 10:55:19;;;;;;;15.70;7.32;;;21.80;36.20;;;;;;5083608;28;20440;-81
2022/01/28 10:58:09;;;;;;;17.00;7.45;;;21.70;36.30;;;;;;5087067;28;20056;-82
2022/01/28 11:00:37;;;;;;;16.77;8.07;;;21.70;36.40;;;;;;5093148;28;20020;-79
2022/01/28 11:03:04;;;;;;;19.23;7.50;;;21.60;36.10;;;;;;5100193;28;20024;-82
2022/01/28 11:05:31;;;;;;;17.42;7.55;;;21.50;35.70;;;;;;5116838;28;20008;-78
2022/01/28 11:07:57;;;;;;;13.63;7.25;;;21.40;35.80;;;;;;5098526;28;20020;-81
2022/01/28 11:10:23;;;;;;;21.27;7.78;;;21.40;35.90;;;;;;5098054;28;20023;-79
2022/01/28 11:12:52;;;;;;;17.85;7.13;;;21.30;35.90;;;;;;5098352;28;20507;-82
2022/01/28 11:15:20;;;;;;;22.10;7.78;;;21.20;35.90;;;;;;5098123;28;20039;-79
2022/01/28 11:17:50;;;;;;;13.82;7.38;;;21.20;35.90;;;;;;5097979;28;20027;-84
2022/01/28 11:20:21;;;;;;;13.30;6.78;;;21.20;35.80;;;;;;5098503;28;20020;-81
2022/01/28 11:23:03;;;;;;;13.95;7.40;;;21.20;35.80;;;;;;5098891;28;20016;-83
2022/01/28 11:26:02;;;;;;;14.82;7.80;;;21.20;35.70;;;;;;5101771;28;20028;-82
2022/01/28 11:28:45;;;;;;;14.68;7.88;;;21.20;35.70;;;;;;5117289;28;20088;-82
2022/01/28 11:31:11;;;;;;;12.35;7.43;;;21.20;35.60;;;;;;5118148;28;20018;-81
2022/01/28 11:33:51;;;;;;;16.23;7.63;;;21.20;35.60;;;;;;5099645;28;20392;-81
2022/01/28 11:36:31;;;;;;;15.38;7.82;;;21.20;35.50;;;;;;5083574;28;20050;-86
2022/01/28 11:38:58;;;;;;;15.40;7.95;;;21.20;35.50;;;;;;5083293;28;20039;-84
2022/01/28 11:41:40;;;;;;;15.50;8.40;;;21.20;35.50;;;;;;5072554;28;20395;-33
2022/01/28 11:44:08;;;;;;;14.23;7.75;;;21.10;35.60;;;;;;5070796;28;20025;-38
2022/01/28 11:46:39;;;;;;;16.25;8.70;;;21.10;35.80;;;;;;5068808;28;20032;-36
2022/01/28 11:49:07;;;;;;;16.88;8.40;;;21.00;35.70;;;;;;5069187;28;20028;-34
2022/01/28 11:51:33;;;;;;;22.70;8.45;;;21.10;36.70;;;;;;5067435;28;20024;-35
2022/01/28 11:54:07;;;;;;;19.23;8.52;;;21.20;37.70;;;;;;5069184;28;20464;-40
2022/01/28 11:56:33;;;;;;;20.40;8.75;;;21.20;38.20;;;;;;5069009;28;20092;-37
2022/01/28 11:59:02;;;;;;;17.23;8.50;;;21.30;39.20;;;;;;5069279;28;20078;-34
2022/01/28 12:01:40;;;;;;;18.15;8.25;;;21.30;38.80;;;;;;5069202;28;20031;-34
2022/01/28 12:04:27;;;;;;;19.92;9.70;;;21.40;39.60;;;;;;5069302;28;20068;-32
2022/01/28 12:07:19;;;;;;;17.67;8.52;;;21.40;39.10;;;;;;5068227;28;20017;-33
2022/01/28 12:09:50;;;;;;;14.15;9.00;;;21.40;39.30;;;;;;5068462;28;20467;-37
2022/01/28 12:12:58;;;;;;;18.25;9.27;;;21.50;39.40;;;;;;5068586;28;20066;-35
2022/01/28 12:15:28;;;;;;;16.77;9.30;;;21.50;39.50;;;;;;5046400;28;20017;-34
2022/01/28 12:18:04;;;;;;;;;;;21.50;39.80;;;;;;5046650;28;20025;-35
2022/01/28 12:20:36;;;;;;;20.98;8.95;;;21.40;39.90;;;;;;5045828;28;19999;-33
2022/01/28 12:23:08;;;;;;;16.52;8.60;;;21.40;40.10;;;;;;5045688;28;20047;-33
2022/01/28 12:25:36;;;;;;;19.85;9.18;;;21.40;40.40;;;;;;5045830;28;20017;-35
2022/01/28 12:28:19;;;;;;;20.30;9.90;;;21.40;40.20;;;;;;5045937;28;20025;-34
2022/01/28 12:30:47;;;;;;;19.92;9.85;;;21.50;40.30;;;;;;5045984;28;20041;-36
2022/01/28 12:33:13;;;;;;;16.83;9.05;;;21.50;40.40;;;;;;5046021;28;20025;-32
2022/01/28 12:35:40;;;;;;;17.13;8.90;;;21.50;40.40;;;;;;5029525;28;20043;-33
2022/01/28 12:38:08;;;;;;;18.40;9.15;;;21.50;40.10;;;;;;5044954;28;20059;-33
2022/01/28 12:40:41;;;;;;;21.52;9.52;;;21.40;40.00;;;;;;5046555;28;20075;-35
2022/01/28 12:43:07;;;;;;;27.08;9.55;;;21.30;39.30;;;;;;5047636;28;20110;-34
2022/01/28 12:45:33;;;;;;;28.77;9.93;;;21.30;39.30;;;;;;5048162;28;20013;-33
2022/01/28 12:47:59;;;;;;;20.27;8.88;;;21.20;40.00;;;;;;5049172;28;20021;-40
2022/01/28 12:50:25;;;;;;;19.23;9.48;;;21.20;39.50;;;;;;5070297;28;20044;-33
2022/01/28 12:52:51;;;;;;;17.83;9.10;;;21.30;39.50;;;;;;5058432;28;20025;-32
2022/01/28 12:55:17;;;;;;;16.17;8.90;;;21.30;39.40;;;;;;5057077;28;20021;-38
2022/01/28 12:57:46;;;;;;;17.90;8.05;;;21.30;39.50;;;;;;5057765;28;20013;-39
2022/01/28 13:00:13;;;;;;;16.00;8.13;;;21.30;39.60;;;;;;5057425;28;20032;-35
2022/01/28 13:02:41;;;;;;;20.75;8.13;;;21.30;40.00;;;;;;5058529;28;20024;-37
2022/01/28 13:10:25;;;;;;;14.80;8.50;;;20.70;39.70;;;;;;5057816;28;20056;-40
2022/01/28 13:12:52;;;;;;;13.27;8.35;;;20.30;40.60;;;;;;5057826;28;20013;-39
2022/01/28 13:15:18;;;;;;;13.40;9.02;;;19.90;41.30;;;;;;5058080;28;20468;-33
2022/01/28 13:17:58;;;;;;;12.68;8.50;;;19.90;40.50;;;;;;5057155;28;20021;-33
2022/01/28 13:20:24;;;;;;;16.80;9.00;;;20.00;40.20;;;;;;5055501;28;20028;-34
2022/01/28 13:25:37;;;;;;;12.10;8.13;;;20.10;40.10;;;;;;5057529;28;20094;-33
2022/01/28 13:28:06;;;;;;;14.82;8.35;;;20.20;39.60;;;;;;5057797;28;20017;-35
2022/01/28 13:30:35;;;;;;;13.75;7.68;;;20.20;39.70;;;;;;5056112;28;20039;-36
2022/01/28 13:33:02;;;;;;;13.90;8.00;;;20.40;39.40;;;;;;5056881;28;20029;-37
2022/01/28 13:35:32;;;;;;;16.55;7.15;;;20.50;38.80;;;;;;5059638;28;20024;-38
2022/01/28 13:38:02;;;;;;;;;;;20.80;38.40;;;;;;5060289;28;20083;-42
2022/01/28 13:40:28;;;;;;;15.13;6.68;;;21.00;37.90;;;;;;5060502;28;19928;-36
2022/01/28 13:43:06;;;;;;;10.95;6.35;;;21.20;37.70;;;;;;5059578;28;20040;-40
2022/01/28 13:45:41;;;;;;;12.13;6.28;;;21.30;37.30;;;;;;5059260;28;20021;-37
2022/01/28 13:48:18;;;;;;;12.65;5.90;;;21.40;37.10;;;;;;5059735;28;20040;-38
2022/01/28 13:50:45;;;;;;;10.75;5.30;;;21.50;36.90;;;;;;5058391;28;20013;-42
2022/01/28 13:55:47;;;;;;;13.73;5.82;;;21.60;36.80;;;;;;5059521;28;20021;-41
2022/01/28 13:58:13;;;;;;;10.32;5.43;;;21.60;36.70;;;;;;5059400;28;20064;-37
2022/01/28 14:00:43;;;;;;;12.05;5.63;;;21.70;36.70;;;;;;5061461;28;20025;-41
2022/01/28 14:03:19;;;;;;;10.27;5.40;;;21.80;36.60;;;;;;5061024;28;20352;-40
2022/01/28 14:05:59;;;;;;;11.13;5.20;;;21.80;36.50;;;;;;5058943;28;20006;-41
2022/01/28 14:08:38;;;;;;;;;;;21.80;36.50;;;;;;5059840;28;20043;-40
2022/01/28 14:11:37;;;;;;;10.07;5.20;;;21.80;36.40;;;;;;5059556;28;19995;-39
2022/01/28 14:14:24;;;;;;;9.15;5.05;;;21.90;36.30;;;;;;5059053;28;20319;-36
2022/01/28 14:16:54;;;;;;;13.30;5.88;;;21.90;36.40;;;;;;5057646;28;20043;-34
2022/01/28 14:19:20;;;;;;;11.95;5.72;;;21.90;36.30;;;;;;5054791;28;20047;-37
2022/01/28 14:21:51;;;;;;;13.23;5.47;;;21.90;36.30;;;;;;5055995;28;20044;-37
2022/01/28 14:24:21;;;;;;;11.45;6.45;;;21.90;36.40;;;;;;5057911;28;20025;-35
2022/01/28 14:32:03;;;;;;;15.13;6.22;;;22.00;36.30;;;;;;5058753;28;20028;-40
2022/01/28 14:34:29;;;;;;;13.20;6.07;;;22.00;36.30;;;;;;5059569;28;20016;-39
2022/01/28 14:36:55;;;;;;;13.32;5.93;;;22.00;36.30;;;;;;5058176;28;20383;-35
2022/01/28 14:39:21;;;;;;;13.55;5.63;;;22.00;36.30;;;;;;5059485;28;20013;-38
2022/01/28 14:41:49;;;;;;;12.43;5.75;;;22.10;36.30;;;;;;5059091;28;20419;-41
2022/01/28 14:44:16;;;;;;;14.15;5.72;;;22.10;36.30;;;;;;5059838;28;20025;-36
2022/01/28 14:46:42;;;;;;;14.98;6.30;;;22.10;36.30;;;;;;5059967;28;20044;-36
2022/01/28 14:49:08;;;;;;;11.52;6.00;;;22.10;36.30;;;;;;5059639;28;20017;-38
2022/01/28 14:51:34;;;;;;;12.88;5.82;;;22.10;36.20;;;;;;5057973;28;20154;-34
2022/01/28 14:54:00;;;;;;;13.20;6.63;;;22.10;36.20;;;;;;5058201;28;20480;-36
2022/01/28 14:56:26;;;;;;;15.90;6.68;;;22.10;36.30;;;;;;5058965;28;20067;-33